createdAt,value
2023-03-29T00:02:02.317Z,101385.22
2023-03-29T00:05:07.469Z,101399.91
2023-03-29T00:08:09.589Z,101399.72
2023-03-29T00:11:12.942Z,101392.16
2023-03-29T00:14:15.340Z,101405.72
2023-03-29T00:17:17.628Z,101404.69
2023-03-29T00:20:20.016Z,101381.28
2023-03-29T00:23:22.904Z,101417.25
2023-03-29T00:26:25.016Z,101389.97
2023-03-29T00:29:27.229Z,101406.03
2023-03-29T00:32:29.270Z,101417.75
2023-03-29T00:35:31.577Z,101418.16
2023-03-29T00:38:33.799Z,101415.25
2023-03-29T00:41:36.095Z,101414.00
2023-03-29T00:44:56.984Z,101423.31
2023-03-29T00:48:05.856Z,101381.56
2023-03-29T00:51:14.363Z,101397.88
2023-03-29T00:54:18.879Z,101411.94
2023-03-29T00:57:25.820Z,101407.97
2023-03-29T01:00:37.072Z,101371.94
2023-03-29T01:03:46.547Z,101385.31
2023-03-29T01:07:07.642Z,101401.31
2023-03-29T01:10:19.597Z,101371.25
2023-03-29T01:13:28.106Z,101363.66
2023-03-29T01:16:33.788Z,101384.91
2023-03-29T01:19:43.949Z,101382.91
2023-03-29T01:22:58.364Z,101372.75
2023-03-29T01:26:22.368Z,101381.06
2023-03-29T01:29:37.611Z,101334.22
2023-03-29T01:32:52.270Z,101345.53
2023-03-29T01:36:09.181Z,101339.31
2023-03-29T01:39:11.520Z,101348.09
2023-03-29T01:42:31.161Z,101376.03
2023-03-29T01:45:53.067Z,101375.63
2023-03-29T01:49:19.422Z,101355.22
2023-03-29T01:52:50.580Z,101361.81
2023-03-29T01:55:59.376Z,101388.03
2023-03-29T01:59:08.543Z,101390.88
2023-03-29T02:02:16.096Z,101384.25
2023-03-29T02:05:20.877Z,101395.16
2023-03-29T02:08:23.836Z,101402.91
2023-03-29T02:11:29.436Z,101388.41
2023-03-29T02:14:31.595Z,101379.94
2023-03-29T02:17:33.838Z,101402.16
2023-03-29T02:20:40.729Z,101398.56
2023-03-29T02:23:46.160Z,101379.34
2023-03-29T02:26:49.076Z,101398.84
2023-03-29T02:29:51.328Z,101379.78
2023-03-29T02:33:25.312Z,101379.34
2023-03-29T02:36:34.988Z,101361.72
2023-03-29T02:39:38.723Z,101370.94
2023-03-29T02:42:44.668Z,101352.25
2023-03-29T02:45:47.545Z,101404.06
2023-03-29T02:48:52.386Z,101393.69
2023-03-29T02:51:57.780Z,101368.63
2023-03-29T02:55:03.868Z,101406.31
2023-03-29T02:58:10.463Z,101361.06
2023-03-29T03:01:12.959Z,101397.19
2023-03-29T03:04:18.262Z,101373.28
2023-03-29T03:07:20.463Z,101383.69
2023-03-29T03:10:24.674Z,101386.44
2023-03-29T03:13:26.704Z,101381.19
2023-03-29T03:16:29.041Z,101417.47
2023-03-29T03:19:39.337Z,101393.00
2023-03-29T03:22:44.195Z,101403.84
2023-03-29T03:25:49.341Z,101386.84
2023-03-29T03:28:51.491Z,101395.34
2023-03-29T03:31:54.286Z,101418.97
2023-03-29T03:34:56.740Z,101414.63
2023-03-29T03:37:59.173Z,101415.97
2023-03-29T03:41:04.368Z,101387.06
2023-03-29T03:44:07.244Z,101416.38
2023-03-29T03:47:09.656Z,101402.72
2023-03-29T03:50:12.020Z,101425.22
2023-03-29T03:53:14.341Z,101427.13
2023-03-29T03:56:16.525Z,101417.94
2023-03-29T03:59:18.775Z,101413.31
2023-03-29T04:02:22.878Z,101435.78
2023-03-29T04:05:25.424Z,101429.53
2023-03-29T04:08:27.984Z,101396.59
2023-03-29T04:11:30.204Z,101433.31
2023-03-29T04:14:33.383Z,101420.88
2023-03-29T04:17:35.933Z,101411.06
2023-03-29T04:20:39.548Z,101397.94
2023-03-29T04:23:43.268Z,101398.56
2023-03-29T04:26:45.405Z,101398.19
2023-03-29T04:29:47.910Z,101395.28
2023-03-29T04:32:50.573Z,101392.94
2023-03-29T04:35:53.004Z,101386.78
2023-03-29T04:38:56.133Z,101405.31
2023-03-29T04:41:58.477Z,101390.81
2023-03-29T04:45:01.295Z,101428.94
2023-03-29T04:48:03.668Z,101429.78
2023-03-29T04:51:06.422Z,101399.09
2023-03-29T04:54:10.381Z,101404.56
2023-03-29T04:57:14.107Z,101438.59
2023-03-29T05:00:17.250Z,101399.91
2023-03-29T05:03:22.137Z,101406.41
2023-03-29T05:06:24.130Z,101435.94
2023-03-29T05:09:26.503Z,101407.16
2023-03-29T05:12:32.818Z,101424.78
2023-03-29T05:15:43.041Z,101451.78
2023-03-29T05:18:45.350Z,101438.50
2023-03-29T05:21:53.416Z,101411.88
2023-03-29T05:24:55.672Z,101412.53
2023-03-29T05:27:58.292Z,101440.47
2023-03-29T05:31:05.871Z,101440.72
2023-03-29T05:34:08.350Z,101427.38
2023-03-29T05:37:11.165Z,101445.06
2023-03-29T05:40:15.411Z,101429.84
2023-03-29T05:43:23.611Z,101439.38
2023-03-29T05:46:41.989Z,101405.22
2023-03-29T05:50:15.559Z,101427.00
2023-03-29T05:54:25.841Z,101451.88
2023-03-29T07:19:40.906Z,101492.56
2023-03-29T07:22:57.141Z,101477.75
2023-03-29T07:26:07.994Z,101484.31
2023-03-29T07:38:53.985Z,101481.16
2023-03-29T07:46:37.396Z,101486.03
2023-03-29T07:50:13.408Z,101512.09
2023-03-29T07:57:23.341Z,101505.75
2023-03-29T09:39:24.313Z,101421.88
2023-03-29T09:42:58.462Z,101396.81
2023-03-29T09:51:58.752Z,101391.00
2023-03-29T10:09:22.431Z,101400.06
2023-03-29T10:33:09.216Z,101354.94
2023-03-29T10:36:20.672Z,101338.97
2023-03-29T10:39:27.698Z,101372.06
2023-03-29T10:42:35.790Z,101347.81
2023-03-29T10:45:53.704Z,101360.81
2023-03-29T10:49:13.747Z,101359.66
2023-03-29T10:52:45.083Z,101344.25
2023-03-29T10:56:17.660Z,101341.69
2023-03-29T11:04:15.812Z,101344.75
2023-03-29T11:07:33.416Z,101339.97
2023-03-29T11:40:50.551Z,101331.75
2023-03-29T11:48:38.876Z,101310.03
2023-03-29T11:51:50.101Z,101283.50
2023-03-29T11:55:36.624Z,101287.06
2023-03-29T11:58:59.688Z,101268.56
2023-03-29T12:02:15.293Z,101302.34
2023-03-29T12:05:34.920Z,101304.25
2023-03-29T12:08:48.146Z,101293.47
2023-03-29T12:12:15.429Z,101258.28
2023-03-29T12:15:29.489Z,101231.66
2023-03-29T12:19:17.923Z,101259.34
2023-03-29T12:35:47.445Z,101240.47
2023-03-29T12:48:00.351Z,101225.50
2023-03-29T12:51:24.706Z,101221.47
2023-03-29T12:54:33.888Z,101201.28
2023-03-29T12:57:45.186Z,101197.16
2023-03-29T13:00:57.674Z,101232.47
2023-03-29T13:04:05.933Z,101238.13
2023-03-29T13:07:37.893Z,101230.81
2023-03-29T13:10:42.555Z,101213.06
2023-03-29T13:13:44.886Z,101214.44
2023-03-29T13:17:01.449Z,101207.34
2023-03-29T13:20:50.742Z,101217.94
2023-03-29T13:24:05.765Z,101225.09
2023-03-29T13:27:15.975Z,101215.75
2023-03-29T13:30:33.937Z,101208.03
2023-03-29T13:34:05.668Z,101209.47
2023-03-29T13:37:28.648Z,101176.69
2023-03-29T13:40:34.371Z,101202.81
2023-03-29T13:43:42.402Z,101212.63
2023-03-29T13:48:05.138Z,101207.13
2023-03-29T13:51:14.113Z,101196.94
2023-03-29T13:54:19.366Z,101188.19
2023-03-29T13:57:40.980Z,101186.41
2023-03-29T14:00:56.180Z,101183.16
2023-03-29T14:03:59.631Z,101183.25
2023-03-29T14:07:07.323Z,101186.97
2023-03-29T14:10:15.256Z,101186.88
2023-03-29T14:13:20.897Z,101156.09
2023-03-29T14:16:27.278Z,101150.09
2023-03-29T14:19:37.877Z,101139.88
2023-03-29T14:22:42.593Z,101168.50
2023-03-29T14:25:46.954Z,101169.22
2023-03-29T14:28:58.663Z,101165.06
2023-03-29T14:32:20.579Z,101147.59
2023-03-29T14:35:31.471Z,101172.69
2023-03-29T14:38:37.942Z,101145.25
2023-03-29T14:41:43.450Z,101172.63
2023-03-29T14:44:45.940Z,101163.19
2023-03-29T14:47:50.503Z,101163.19
2023-03-29T14:50:54.399Z,101130.03
2023-03-29T14:54:00.430Z,101165.81
2023-03-29T14:57:15.078Z,101151.47
2023-03-29T15:00:26.964Z,101163.00
2023-03-29T15:03:54.172Z,101136.50
2023-03-29T15:06:58.836Z,101158.84
2023-03-29T15:10:08.410Z,101153.09
2023-03-29T15:13:21.120Z,101116.34
2023-03-29T15:16:32.253Z,101122.75
2023-03-29T15:19:41.437Z,101125.66
2023-03-29T15:23:32.107Z,101129.00
2023-03-29T15:26:44.151Z,101124.38
2023-03-29T15:29:49.395Z,101108.91
2023-03-29T15:32:53.494Z,101121.84
2023-03-29T15:35:55.660Z,101136.22
2023-03-29T15:38:58.719Z,101143.50
2023-03-29T15:42:02.142Z,101106.56
2023-03-29T15:45:07.433Z,101128.53
2023-03-29T15:48:17.171Z,101123.09
2023-03-29T15:51:19.365Z,101126.94
2023-03-29T15:54:33.801Z,101096.44
2023-03-29T15:57:56.925Z,101117.63
2023-03-29T16:01:39.763Z,101096.00
2023-03-29T16:04:42.493Z,101093.34
2023-03-29T16:07:47.748Z,101100.38
2023-03-29T16:10:49.971Z,101096.50
2023-03-29T16:13:52.323Z,101110.63
2023-03-29T16:17:01.475Z,101100.63
2023-03-29T16:20:05.388Z,101087.00
2023-03-29T16:23:14.536Z,101097.88
2023-03-29T16:26:31.357Z,101092.03
2023-03-29T16:29:41.544Z,101105.06
2023-03-29T16:32:46.363Z,101091.69
2023-03-29T16:35:59.159Z,101086.72
2023-03-29T16:39:06.376Z,101087.97
2023-03-29T16:42:12.635Z,101054.50
2023-03-29T16:46:10.317Z,101091.19
2023-03-29T16:49:20.301Z,101085.63
2023-03-29T16:52:23.718Z,101099.63
2023-03-29T16:55:46.766Z,101076.50
2023-03-29T16:58:53.816Z,101100.44
2023-03-29T17:02:35.153Z,101071.44
2023-03-29T17:05:42.920Z,101064.41
2023-03-29T17:09:11.200Z,101102.09
2023-03-29T17:12:33.435Z,101048.56
2023-03-29T17:15:47.971Z,101057.34
2023-03-29T17:19:24.798Z,101083.25
2023-03-29T17:22:54.422Z,101077.78
2023-03-29T17:26:11.125Z,101086.91
2023-03-29T17:29:20.127Z,101099.31
2023-03-29T17:32:32.979Z,101105.50
2023-03-29T17:36:11.501Z,101085.44
2023-03-29T17:39:39.144Z,101074.59
2023-03-29T17:44:16.369Z,101115.00
2023-03-29T17:46:47.729Z,101077.06
2023-03-29T17:49:51.912Z,101094.94
2023-03-29T17:52:54.234Z,101114.31
2023-03-29T17:55:56.461Z,101116.09
2023-03-29T17:59:00.423Z,101096.84
2023-03-29T18:02:05.508Z,101081.34
2023-03-29T18:05:09.644Z,101108.56
2023-03-29T18:08:14.867Z,101100.44
2023-03-29T18:11:22.685Z,101116.25
2023-03-29T18:14:27.211Z,101139.06
2023-03-29T18:17:29.597Z,101136.59
2023-03-29T18:20:31.721Z,101130.56
2023-03-29T18:23:34.037Z,101109.63
2023-03-29T18:26:37.530Z,101137.81
2023-03-29T18:29:40.077Z,101121.44
2023-03-29T18:32:45.480Z,101153.09
2023-03-29T18:35:50.629Z,101153.75
2023-03-29T18:38:56.754Z,101138.19
2023-03-29T18:41:59.131Z,101119.22
2023-03-29T18:45:01.733Z,101150.88
2023-03-29T18:48:08.094Z,101125.56
2023-03-29T18:51:11.659Z,101149.53
2023-03-29T18:54:17.213Z,101141.13
2023-03-29T18:57:21.931Z,101137.50
2023-03-29T19:00:24.523Z,101124.75
2023-03-29T19:03:27.849Z,101164.38
2023-03-29T19:06:31.047Z,101160.09
2023-03-29T19:09:33.991Z,101159.69
2023-03-29T19:12:41.412Z,101136.06
2023-03-29T19:15:44.342Z,101110.44
2023-03-29T19:18:48.180Z,101148.13
2023-03-29T19:21:50.881Z,101127.06
2023-03-29T19:24:53.161Z,101139.56
2023-03-29T19:27:55.602Z,101144.38
2023-03-29T19:31:02.691Z,101142.16
2023-03-29T19:34:07.107Z,101150.00
2023-03-29T19:37:09.476Z,101137.50
2023-03-29T19:40:11.993Z,101165.00
2023-03-29T19:43:16.806Z,101152.59
2023-03-29T19:46:20.589Z,101130.38
2023-03-29T19:49:22.928Z,101165.69
2023-03-29T19:52:28.008Z,101151.94
2023-03-29T19:55:33.980Z,101150.72
2023-03-29T19:58:38.444Z,101109.88
2023-03-29T20:01:44.438Z,101136.81
2023-03-29T20:04:48.618Z,101123.06
2023-03-29T20:07:51.557Z,101107.13
2023-03-29T20:11:02.977Z,101128.00
2023-03-29T20:14:05.542Z,101136.66
2023-03-29T20:17:08.032Z,101147.94
2023-03-29T20:20:12.079Z,101107.97
2023-03-29T20:23:15.501Z,101124.19
2023-03-29T20:26:17.591Z,101112.34
2023-03-29T20:29:19.854Z,101104.50
2023-03-29T20:32:22.215Z,101137.25
2023-03-29T20:35:24.855Z,101136.53
2023-03-29T20:38:27.192Z,101084.06
2023-03-29T20:41:29.253Z,101129.41
2023-03-29T20:44:32.411Z,101089.13
2023-03-29T20:47:42.634Z,101129.81
2023-03-29T20:50:49.832Z,101124.19
2023-03-29T20:53:51.806Z,101115.94
2023-03-29T20:56:55.077Z,101128.03
2023-03-29T20:59:57.129Z,101102.75
2023-03-29T21:02:59.471Z,101098.75
2023-03-29T21:06:02.468Z,101121.31
2023-03-29T21:09:05.789Z,101118.44
2023-03-29T21:12:08.196Z,101124.22
2023-03-29T21:15:11.092Z,101083.81
2023-03-29T21:18:13.326Z,101094.25
2023-03-29T21:21:15.361Z,101115.97
2023-03-29T21:24:18.676Z,101116.25
2023-03-29T21:27:22.928Z,101112.09
2023-03-29T21:30:25.146Z,101099.31
2023-03-29T21:33:27.211Z,101078.72
2023-03-29T21:36:36.556Z,101095.06
2023-03-29T21:39:38.620Z,101100.56
2023-03-29T21:42:40.714Z,101107.16
2023-03-29T21:45:42.685Z,101091.63
2023-03-29T21:48:44.716Z,101092.84
2023-03-29T21:51:47.206Z,101094.25
2023-03-29T21:54:49.187Z,101106.88
2023-03-29T21:57:51.173Z,101104.81
2023-03-29T22:00:56.219Z,101099.34
2023-03-29T22:03:58.280Z,101109.09
2023-03-29T22:07:00.231Z,101105.41
2023-03-29T22:10:05.660Z,101085.47
2023-03-29T22:13:09.067Z,101097.56
2023-03-29T22:16:14.267Z,101087.47
2023-03-29T22:19:16.817Z,101103.81
2023-03-29T22:22:19.440Z,101087.91
2023-03-29T22:25:22.953Z,101109.22
2023-03-29T22:28:24.945Z,101083.66
2023-03-29T22:31:28.622Z,101101.53
2023-03-29T22:34:31.185Z,101079.56
2023-03-29T22:37:33.566Z,101105.78
2023-03-29T22:40:39.448Z,101102.75
2023-03-29T22:43:41.513Z,101085.47
2023-03-29T22:46:43.698Z,101104.41
2023-03-29T22:49:46.372Z,101101.25
2023-03-29T22:52:48.331Z,101099.22
2023-03-29T22:55:50.985Z,101103.50
2023-03-29T22:58:52.969Z,101122.34
2023-03-29T23:01:55.037Z,101107.63
2023-03-29T23:04:57.122Z,101110.38
2023-03-29T23:07:59.448Z,101093.81
2023-03-29T23:11:05.447Z,101100.28
2023-03-29T23:14:08.743Z,101086.97
2023-03-29T23:17:11.028Z,101114.88
2023-03-29T23:20:13.966Z,101099.72
2023-03-29T23:23:17.174Z,101089.28
2023-03-29T23:26:19.324Z,101103.44
2023-03-29T23:29:21.395Z,101093.19
2023-03-29T23:32:23.914Z,101107.78
2023-03-29T23:35:25.870Z,101073.84
2023-03-29T23:38:27.912Z,101109.44
2023-03-29T23:41:30.773Z,101098.03
2023-03-29T23:44:33.011Z,101074.63
2023-03-29T23:47:35.606Z,101098.16
2023-03-29T23:50:37.662Z,101096.38
2023-03-29T23:53:39.796Z,101092.44
2023-03-29T23:56:41.584Z,101112.50
2023-03-29T23:59:43.683Z,101085.44
